Time;durP1;ratioP1;P1;durP2;ratioP2;P2;SDS_P1;SDS_P2;PMS_P1;PMS_P2;Temp;Humidity;BMP_temperature;BMP_pressure;BME280_temperature;BME280_humidity;BME280_pressure;Samples;Min_cycle;Max_cycle;Signal;HPM_P1;HPM_P2
2021/04/10 00:00:31;;;;;;;1.40;1.10;;;17.90;51.50;;;;;;5095087;28;20248;-72
2021/04/10 00:02:57;;;;;;;2.45;1.40;;;17.80;50.80;;;;;;5076742;28;20170;-71
2021/04/10 00:05:23;;;;;;;2.35;1.15;;;17.90;50.90;;;;;;5076964;28;20245;-69
2021/04/10 00:07:49;;;;;;;1.50;1.25;;;17.90;50.90;;;;;;5077266;28;20182;-69
2021/04/10 00:10:15;;;;;;;1.20;1.10;;;17.90;50.90;;;;;;5094639;28;20209;-69
2021/04/10 00:12:41;;;;;;;1.42;1.15;;;17.80;50.90;;;;;;5076579;28;20672;-71
2021/04/10 00:15:09;;;;;;;2.83;1.42;;;17.80;50.90;;;;;;5060521;28;20535;-68
2021/04/10 00:17:34;;;;;;;1.88;1.40;;;17.80;50.90;;;;;;5076256;28;20177;-73
2021/04/10 00:20:00;;;;;;;1.67;1.20;;;17.80;50.90;;;;;;5077020;28;20162;-67
2021/04/10 00:22:26;;;;;;;1.95;1.10;;;17.80;50.90;;;;;;5076220;28;20526;-67
2021/04/10 00:24:51;;;;;;;1.70;1.60;;;17.80;50.90;;;;;;5076684;28;20256;-67
2021/04/10 00:27:17;;;;;;;2.13;1.30;;;17.80;50.90;;;;;;5060364;28;20162;-72
2021/04/10 00:29:42;;;;;;;1.52;1.30;;;17.80;50.90;;;;;;5075887;28;20210;-71
2021/04/10 00:32:08;;;;;;;2.05;1.55;;;17.80;50.90;;;;;;5060142;28;20229;-71
2021/04/10 00:34:34;;;;;;;1.92;1.05;;;17.80;50.90;;;;;;5076364;28;20682;-71
2021/04/10 00:36:59;;;;;;;1.30;1.20;;;17.80;51.00;;;;;;5076118;28;20177;-68
2021/04/10 00:39:25;;;;;;;1.60;1.20;;;17.70;50.90;;;;;;5076292;28;20166;-69
2021/04/10 00:41:50;;;;;;;1.40;1.25;;;17.70;50.90;;;;;;5076538;28;20231;-69
2021/04/10 00:44:16;;;;;;;1.58;1.20;;;17.70;50.90;;;;;;5093901;28;20261;-73
2021/04/10 00:46:41;;;;;;;1.50;1.38;;;17.70;51.60;;;;;;5094403;28;20629;-73
2021/04/10 00:49:07;;;;;;;2.67;1.38;;;17.70;50.90;;;;;;5094409;28;20256;-66
2021/04/10 00:51:32;;;;;;;1.20;1.10;;;17.70;50.90;;;;;;5075638;28;20169;-72
2021/04/10 00:53:58;;;;;;;1.63;1.23;;;17.70;50.90;;;;;;5076227;28;20346;-66
2021/04/10 00:56:24;;;;;;;1.33;1.10;;;17.70;50.90;;;;;;5075588;28;20169;-67
2021/04/10 00:58:49;;;;;;;1.90;1.25;;;17.70;50.90;;;;;;5059148;28;20170;-69
2021/04/10 01:01:15;;;;;;;1.48;1.17;;;17.70;51.00;;;;;;5076316;28;20162;-68
2021/04/10 01:03:41;;;;;;;1.50;1.10;;;17.70;51.00;;;;;;5075922;28;20178;-71
2021/04/10 01:06:07;;;;;;;1.40;1.30;;;17.70;51.00;;;;;;5058747;28;20170;-69
2021/04/10 01:08:32;;;;;;;1.25;1.13;;;17.70;51.00;;;;;;5093816;28;20246;-69
2021/04/10 01:11:11;;;;;;;1.98;1.40;;;17.60;50.90;;;;;;5075870;28;20218;-71
2021/04/10 01:13:44;;;;;;;2.22;1.55;;;17.60;51.00;;;;;;5059694;28;20168;-68
2021/04/10 01:16:16;;;;;;;2.10;1.40;;;17.60;51.00;;;;;;5076421;28;20166;-68
2021/04/10 01:18:47;;;;;;;2.03;1.42;;;17.60;50.90;;;;;;5092952;28;20201;-68
2021/04/10 01:21:23;;;;;;;2.20;1.52;;;17.60;51.00;;;;;;5094236;28;20162;-68
2021/04/10 01:24:23;;;;;;;2.05;1.40;;;17.60;50.90;;;;;;5059730;28;20172;-71
2021/04/10 01:27:01;;;;;;;1.60;1.20;;;17.60;51.00;;;;;;5075038;28;20178;-69
2021/04/10 01:29:26;;;;;;;1.98;1.13;;;17.60;51.00;;;;;;5093371;28;20205;-71
2021/04/10 01:31:53;;;;;;;1.65;1.10;;;17.60;51.00;;;;;;5058969;28;20227;-68
2021/04/10 01:34:30;;;;;;;1.58;1.20;;;17.60;50.90;;;;;;5058083;28;20189;-69
2021/04/10 01:36:58;;;;;;;2.15;1.35;;;17.60;51.00;;;;;;5059966;28;20256;-68
2021/04/10 01:39:23;;;;;;;1.45;1.23;;;17.50;50.90;;;;;;5058553;28;20178;-71
2021/04/10 01:41:49;;;;;;;1.65;1.30;;;17.60;50.90;;;;;;5058187;28;20295;-68
2021/04/10 01:44:16;;;;;;;2.50;1.15;;;17.50;50.90;;;;;;5058728;28;20171;-73
2021/04/10 01:46:42;;;;;;;1.38;1.10;;;17.50;50.90;;;;;;5058532;28;20166;-67
2021/04/10 01:49:08;;;;;;;1.08;1.00;;;17.50;50.90;;;;;;5058099;28;20204;-72
2021/04/10 01:51:34;;;;;;;1.42;1.10;;;17.50;50.90;;;;;;5058426;28;20189;-68
2021/04/10 01:54:00;;;;;;;1.80;0.95;;;17.50;50.90;;;;;;5057955;28;20162;-66
2021/04/10 01:56:25;;;;;;;1.70;1.20;;;17.50;50.90;;;;;;5058448;28;20239;-72
2021/04/10 01:58:51;;;;;;;1.10;1.00;;;17.50;51.50;;;;;;5093151;28;20170;-72
2021/04/10 02:01:16;;;;;;;1.83;1.25;;;17.50;51.00;;;;;;5041263;28;20173;-72
2021/04/10 02:03:46;;;;;;;1.30;1.20;;;17.50;50.90;;;;;;5058140;28;20161;-69
2021/04/10 02:06:12;;;;;;;1.70;1.15;;;17.50;50.90;;;;;;5092582;28;20205;-69
2021/04/10 02:08:39;;;;;;;1.33;1.08;;;17.50;50.90;;;;;;5073725;28;20671;-70
2021/04/10 02:11:05;;;;;;;1.48;1.20;;;17.50;50.90;;;;;;5058185;28;20263;-67
2021/04/10 02:13:30;;;;;;;1.67;1.23;;;17.40;50.80;;;;;;5057951;28;20170;-71
2021/04/10 02:15:56;;;;;;;0.93;0.90;;;17.50;50.90;;;;;;5057571;28;20182;-72
2021/04/10 02:18:22;;;;;;;1.20;1.10;;;17.40;50.80;;;;;;5058032;28;20162;-71
2021/04/10 02:20:47;;;;;;;1.08;1.02;;;17.40;50.90;;;;;;5074834;28;20174;-67
2021/04/10 02:23:14;;;;;;;2.08;1.10;;;17.40;50.90;;;;;;5092248;28;20625;-67
2021/04/10 02:25:40;;;;;;;1.58;1.00;;;17.40;50.80;;;;;;5058151;28;20173;-67
2021/04/10 02:28:05;;;;;;;1.63;1.23;;;17.40;50.90;;;;;;5092860;28;20176;-68
2021/04/10 02:30:31;;;;;;;1.15;1.00;;;17.40;50.80;;;;;;5091709;28;20213;-68
2021/04/10 02:33:01;;;;;;;1.17;1.00;;;17.40;50.90;;;;;;5058071;28;20560;-69
2021/04/10 02:35:39;;;;;;;1.52;1.30;;;17.40;50.80;;;;;;5058282;28;20170;-69
2021/04/10 02:38:05;;;;;;;2.53;1.45;;;17.40;51.50;;;;;;5058021;28;20624;-71
2021/04/10 02:40:34;;;;;;;2.15;1.50;;;17.40;50.80;;;;;;5057751;28;20244;-68
2021/04/10 02:43:00;;;;;;;1.83;1.20;;;17.40;50.80;;;;;;5041548;28;20265;-68
2021/04/10 02:45:27;;;;;;;1.60;1.10;;;17.40;50.90;;;;;;5073729;28;20311;-68
2021/04/10 02:48:00;;;;;;;1.25;1.00;;;17.40;51.50;;;;;;5074767;28;20283;-67
2021/04/10 02:50:26;;;;;;;2.72;1.35;;;17.40;51.60;;;;;;5057288;28;20676;-72
2021/04/10 02:52:53;;;;;;;1.70;1.30;;;17.40;50.80;;;;;;5057893;28;20245;-72
2021/04/10 02:55:39;;;;;;;1.38;1.13;;;17.30;50.80;;;;;;5057717;28;20178;-67
2021/04/10 02:58:09;;;;;;;1.10;1.02;;;17.30;50.80;;;;;;5073819;28;20197;-74
2021/04/10 03:00:35;;;;;;;1.63;1.20;;;17.30;50.80;;;;;;5058179;28;20189;-73
2021/04/10 03:03:01;;;;;;;2.88;1.20;;;17.30;50.90;;;;;;5074370;28;20267;-68
2021/04/10 03:05:27;;;;;;;2.33;1.30;;;17.30;50.80;;;;;;5073610;28;20166;-71
2021/04/10 03:07:53;;;;;;;1.52;1.20;;;17.30;50.80;;;;;;5057710;28;20684;-69
2021/04/10 03:10:19;;;;;;;2.00;1.30;;;17.30;50.80;;;;;;5057517;28;20385;-68
2021/04/10 03:12:44;;;;;;;1.67;1.02;;;17.30;50.80;;;;;;5091619;28;20218;-70
2021/04/10 03:15:14;;;;;;;2.28;1.33;;;17.30;50.80;;;;;;5074276;28;20181;-67
2021/04/10 03:17:40;;;;;;;1.95;1.10;;;17.30;50.80;;;;;;5057689;28;20228;-67
2021/04/10 03:20:07;;;;;;;1.00;0.90;;;17.30;50.80;;;;;;5077512;28;20507;-71
2021/04/10 03:22:33;;;;;;;1.70;1.17;;;17.30;50.90;;;;;;5061319;28;20235;-68
2021/04/10 03:24:58;;;;;;;1.45;1.17;;;17.30;50.90;;;;;;5077872;28;20166;-66
2021/04/10 03:27:24;;;;;;;1.15;0.85;;;17.30;50.90;;;;;;5043830;28;20660;-70
2021/04/10 03:29:49;;;;;;;1.52;1.00;;;17.20;50.80;;;;;;5061182;28;20216;-68
2021/04/10 03:32:15;;;;;;;2.10;1.10;;;17.30;50.90;;;;;;5061182;28;20173;-68
2021/04/10 03:34:41;;;;;;;1.65;1.15;;;17.20;50.80;;;;;;5060482;28;20694;-70
2021/04/10 03:37:06;;;;;;;1.88;1.23;;;17.20;50.90;;;;;;5061156;28;20166;-71
2021/04/10 03:39:32;;;;;;;1.42;1.17;;;17.20;50.80;;;;;;5077058;28;20681;-66
2021/04/10 03:41:57;;;;;;;2.40;1.30;;;17.20;50.90;;;;;;5077734;28;20186;-67
2021/04/10 03:44:24;;;;;;;1.38;1.27;;;17.20;50.80;;;;;;5077348;28;20180;-68
2021/04/10 03:46:50;;;;;;;1.58;0.95;;;17.20;50.80;;;;;;5094985;28;20204;-67
2021/04/10 03:49:15;;;;;;;1.40;1.02;;;17.20;50.80;;;;;;5077591;28;20198;-72
2021/04/10 03:51:41;;;;;;;1.30;1.00;;;17.20;50.80;;;;;;5095373;28;20170;-71
2021/04/10 03:54:07;;;;;;;1.88;1.30;;;17.20;51.50;;;;;;5060068;28;20617;-71
2021/04/10 03:56:32;;;;;;;1.42;1.08;;;17.20;50.80;;;;;;5077318;28;20629;-66
2021/04/10 03:58:58;;;;;;;1.15;1.05;;;17.20;50.80;;;;;;5077420;28;20515;-71
2021/04/10 04:01:23;;;;;;;1.73;1.30;;;17.20;50.90;;;;;;5076658;28;20219;-67
2021/04/10 04:03:49;;;;;;;1.30;1.10;;;17.20;50.80;;;;;;5077073;28;20174;-69
2021/04/10 04:06:15;;;;;;;1.80;1.10;;;17.20;50.90;;;;;;5095657;28;20231;-72
2021/04/10 04:08:40;;;;;;;1.45;0.98;;;17.20;51.50;;;;;;5094369;28;20198;-68
2021/04/10 04:11:06;;;;;;;1.17;1.00;;;17.20;50.90;;;;;;5077123;28;20221;-70
2021/04/10 04:13:31;;;;;;;2.65;1.20;;;17.10;50.90;;;;;;5095070;28;20202;-69
2021/04/10 04:15:57;;;;;;;1.10;1.00;;;17.10;50.90;;;;;;5076397;28;20185;-67
2021/04/10 04:18:22;;;;;;;1.23;1.08;;;17.10;51.50;;;;;;5076793;28;20532;-67
2021/04/10 04:20:48;;;;;;;1.80;1.05;;;17.10;50.90;;;;;;5094931;28;20174;-66
2021/04/10 04:23:14;;;;;;;1.25;1.10;;;17.10;50.90;;;;;;5076480;28;20170;-67
2021/04/10 04:25:39;;;;;;;1.02;1.02;;;17.10;50.90;;;;;;5094650;28;20651;-67
2021/04/10 04:28:05;;;;;;;1.40;1.00;;;17.10;50.90;;;;;;5095012;28;20170;-71
2021/04/10 04:30:31;;;;;;;1.73;1.10;;;17.10;50.90;;;;;;5093201;28;20201;-70
2021/04/10 04:32:56;;;;;;;1.00;0.73;;;17.10;50.90;;;;;;5060135;28;20574;-68
2021/04/10 04:35:22;;;;;;;1.98;1.27;;;17.10;51.50;;;;;;5076405;28;20173;-70
2021/04/10 04:37:47;;;;;;;2.08;1.10;;;17.10;51.50;;;;;;5076145;28;20176;-68
2021/04/10 04:40:14;;;;;;;1.42;1.00;;;17.10;50.90;;;;;;5076655;28;20501;-67
2021/04/10 04:42:39;;;;;;;1.55;1.00;;;17.10;50.90;;;;;;5075984;28;20219;-69
2021/04/10 04:45:06;;;;;;;2.15;1.27;;;17.10;50.90;;;;;;5076467;28;20177;-67
2021/04/10 04:47:32;;;;;;;2.05;1.30;;;17.10;50.90;;;;;;5076262;28;20174;-72
2021/04/10 04:49:58;;;;;;;0.90;0.90;;;17.00;50.80;;;;;;5075669;28;21038;-66
2021/04/10 04:52:23;;;;;;;2.00;1.17;;;17.00;50.80;;;;;;5076081;28;20174;-67
2021/04/10 04:54:49;;;;;;;1.10;1.00;;;17.00;50.90;;;;;;5076178;28;20184;-65
2021/04/10 04:57:14;;;;;;;1.10;1.00;;;17.00;50.90;;;;;;5075998;28;20533;-67
2021/04/10 04:59:40;;;;;;;1.48;1.00;;;17.00;50.90;;;;;;5094590;28;20170;-67
2021/04/10 05:02:06;;;;;;;1.10;1.00;;;17.00;50.90;;;;;;5076200;28;20529;-72
2021/04/10 05:04:31;;;;;;;1.02;0.90;;;17.00;50.90;;;;;;5075263;28;20192;-69
2021/04/10 05:06:57;;;;;;;1.33;0.90;;;17.00;50.90;;;;;;5094367;28;20500;-68
2021/04/10 05:09:22;;;;;;;1.60;1.00;;;17.00;50.90;;;;;;5093830;28;20201;-67
2021/04/10 05:11:50;;;;;;;1.15;1.02;;;17.00;50.80;;;;;;5093114;28;20224;-67
2021/04/10 05:14:15;;;;;;;1.23;1.13;;;17.00;51.00;;;;;;5094082;28;20177;-71
2021/04/10 05:16:41;;;;;;;1.15;0.80;;;17.10;51.10;;;;;;5075730;28;20543;-67
2021/04/10 05:19:06;;;;;;;1.98;1.15;;;17.20;50.90;;;;;;5075224;28;20173;-66
2021/04/10 05:21:32;;;;;;;0.80;0.80;;;17.30;50.80;;;;;;5093476;28;20201;-71
2021/04/10 05:23:57;;;;;;;1.25;0.70;;;17.50;50.80;;;;;;5075570;28;20284;-72
2021/04/10 05:26:23;;;;;;;1.13;1.02;;;17.60;50.60;;;;;;5058161;28;20174;-71
2021/04/10 05:28:49;;;;;;;1.73;1.05;;;17.80;50.30;;;;;;5075645;28;20228;-70
2021/04/10 05:31:14;;;;;;;1.30;1.08;;;17.90;50.10;;;;;;5093751;28;20174;-70
2021/04/10 05:33:40;;;;;;;0.82;0.82;;;18.10;49.90;;;;;;5074622;28;20584;-71
2021/04/10 05:36:06;;;;;;;1.60;0.88;;;18.20;49.60;;;;;;5058877;28;20181;-71
2021/04/10 05:38:32;;;;;;;0.80;0.80;;;18.30;49.50;;;;;;5075200;28;20251;-70
2021/04/10 05:40:57;;;;;;;1.08;0.98;;;18.40;49.40;;;;;;5058131;28;20169;-72
2021/04/10 05:43:23;;;;;;;1.05;0.80;;;18.40;49.20;;;;;;5041976;28;20169;-70
2021/04/10 05:45:49;;;;;;;1.23;0.90;;;18.60;49.00;;;;;;5075208;28;20228;-72
2021/04/10 05:48:14;;;;;;;1.27;0.80;;;18.60;48.80;;;;;;5074786;28;20162;-73
2021/04/10 05:50:40;;;;;;;0.75;0.70;;;18.70;48.70;;;;;;5074884;28;20208;-72
2021/04/10 05:53:06;;;;;;;1.15;0.90;;;18.80;48.60;;;;;;5058176;28;20223;-70
2021/04/10 05:55:31;;;;;;;0.80;0.77;;;18.80;48.40;;;;;;5074755;28;20177;-70
2021/04/10 05:57:57;;;;;;;1.15;0.95;;;18.80;48.40;;;;;;5075201;28;20173;-72
2021/04/10 06:00:23;;;;;;;1.20;0.82;;;18.90;48.40;;;;;;5074447;28;20184;-71
2021/04/10 06:02:52;;;;;;;0.80;0.80;;;18.80;48.40;;;;;;5075073;28;20170;-69
2021/04/10 06:05:19;;;;;;;1.60;0.90;;;18.80;48.60;;;;;;5074996;28;20170;-72
2021/04/10 06:07:45;;;;;;;1.17;0.80;;;18.70;48.70;;;;;;5057605;28;20170;-69
2021/04/10 06:10:12;;;;;;;1.15;0.98;;;18.60;49.50;;;;;;5058100;28;20696;-72
2021/04/10 06:12:38;;;;;;;1.25;0.77;;;18.50;49.00;;;;;;5057930;28;20218;-71
2021/04/10 06:15:07;;;;;;;1.20;0.90;;;18.40;49.00;;;;;;5057605;28;20177;-67
2021/04/10 06:17:33;;;;;;;1.63;0.90;;;18.40;49.20;;;;;;5041538;28;20256;-68
2021/04/10 06:19:59;;;;;;;1.48;0.80;;;18.30;49.30;;;;;;5074733;28;20680;-71
2021/04/10 06:22:24;;;;;;;1.35;1.00;;;18.30;49.40;;;;;;5057230;28;20173;-70
2021/04/10 06:24:51;;;;;;;1.42;1.08;;;18.20;49.60;;;;;;5074502;28;20261;-68
2021/04/10 06:27:17;;;;;;;1.25;1.08;;;18.10;49.60;;;;;;5092987;28;20496;-71
2021/04/10 06:29:42;;;;;;;1.20;1.05;;;18.00;49.60;;;;;;5073728;28;20242;-71
2021/04/10 06:32:08;;;;;;;1.33;0.80;;;18.00;49.80;;;;;;5092614;28;20612;-71
2021/04/10 06:34:33;;;;;;;1.10;0.85;;;18.00;49.90;;;;;;5074443;28;20165;-71
2021/04/10 06:36:59;;;;;;;1.55;0.80;;;17.90;50.00;;;;;;5092112;28;20215;-69
2021/04/10 06:39:25;;;;;;;1.77;1.23;;;17.80;50.00;;;;;;5057613;28;20219;-68
2021/04/10 06:41:50;;;;;;;1.40;0.93;;;17.80;50.00;;;;;;5074489;28;20652;-70
2021/04/10 06:44:16;;;;;;;1.27;0.90;;;17.80;50.10;;;;;;5074041;28;20231;-71
2021/04/10 06:46:41;;;;;;;1.65;0.75;;;17.80;50.30;;;;;;5092425;28;20176;-71
2021/04/10 06:49:07;;;;;;;1.30;0.70;;;17.80;50.30;;;;;;5041155;28;20201;-66
2021/04/10 06:51:33;;;;;;;1.98;0.75;;;17.80;50.30;;;;;;5057051;28;20310;-65
2021/04/10 06:53:58;;;;;;;1.92;0.90;;;17.80;50.30;;;;;;5076687;28;20169;-71
2021/04/10 06:56:26;;;;;;;1.08;0.98;;;17.90;50.30;;;;;;5061014;28;20662;-71
2021/04/10 06:59:00;;;;;;;1.15;0.80;;;17.90;50.10;;;;;;5062189;28;20175;-70
2021/04/10 07:01:26;;;;;;;1.20;0.70;;;17.90;50.10;;;;;;5096280;28;20169;-69
2021/04/10 07:03:52;;;;;;;2.10;1.05;;;17.90;50.10;;;;;;5061083;28;20531;-60
2021/04/10 07:06:18;;;;;;;1.92;0.82;;;17.90;50.30;;;;;;5078269;28;20170;-73
2021/04/10 07:08:44;;;;;;;1.42;1.15;;;17.90;50.40;;;;;;5096252;28;20173;-59
2021/04/10 07:11:10;;;;;;;1.63;0.90;;;17.90;50.30;;;;;;5095548;28;20225;-67
2021/04/10 07:13:35;;;;;;;3.15;1.08;;;17.80;50.20;;;;;;5060884;28;20184;-62
2021/04/10 07:16:02;;;;;;;2.88;1.00;;;17.80;50.50;;;;;;5061206;28;20191;-67
2021/04/10 07:18:28;;;;;;;1.55;1.00;;;17.90;50.80;;;;;;5077031;28;20161;-69
2021/04/10 07:21:14;;;;;;;1.50;1.30;;;18.00;50.90;;;;;;5077711;28;20323;-68
2021/04/10 07:23:46;;;;;;;4.15;1.27;;;18.00;50.80;;;;;;5077528;28;20586;-67
2021/04/10 07:26:12;;;;;;;2.42;1.30;;;18.10;50.70;;;;;;5077120;28;20174;-71
2021/04/10 07:28:37;;;;;;;1.35;1.00;;;18.10;50.70;;;;;;5095452;28;20162;-65
2021/04/10 07:31:07;;;;;;;2.17;1.05;;;18.00;50.70;;;;;;5077651;28;20539;-66
2021/04/10 07:33:34;;;;;;;2.30;1.35;;;18.10;50.80;;;;;;5077558;28;20239;-67
2021/04/10 07:36:02;;;;;;;2.75;1.30;;;18.10;50.80;;;;;;5060960;28;20173;-67
2021/04/10 07:38:32;;;;;;;1.40;1.00;;;18.00;50.80;;;;;;5060424;28;20660;-67
2021/04/10 07:41:00;;;;;;;2.08;0.98;;;18.00;50.80;;;;;;5077573;28;20173;-67
2021/04/10 07:43:27;;;;;;;1.92;1.10;;;18.00;50.90;;;;;;5095287;28;20162;-71
2021/04/10 07:46:12;;;;;;;1.95;1.17;;;18.00;51.00;;;;;;5094947;28;20169;-64
2021/04/10 07:48:38;;;;;;;2.65;1.42;;;18.00;51.00;;;;;;5077140;28;20223;-69
2021/04/10 07:51:12;;;;;;;2.30;1.30;;;17.90;51.70;;;;;;5061007;28;20543;-63
2021/04/10 07:53:38;;;;;;;2.88;1.48;;;18.00;51.50;;;;;;5060966;28;20188;-70
2021/04/10 07:56:04;;;;;;;3.65;1.23;;;17.90;51.70;;;;;;5095376;28;20174;-64
2021/04/10 07:58:30;;;;;;;3.42;1.15;;;17.90;51.80;;;;;;5095081;28;20543;-72
2021/04/10 08:00:57;;;;;;;2.88;1.25;;;17.90;51.80;;;;;;5059838;28;20188;-64
2021/04/10 08:03:30;;;;;;;4.75;1.50;;;17.90;52.00;;;;;;5076895;28;20170;-67
2021/04/10 08:05:57;;;;;;;4.05;1.35;;;18.00;52.00;;;;;;5075875;28;20249;-67
2021/04/10 08:08:24;;;;;;;2.42;1.30;;;18.00;52.00;;;;;;5059518;28;20629;-66
2021/04/10 08:11:05;;;;;;;3.17;1.10;;;17.90;52.00;;;;;;5076699;28;20686;-66
2021/04/10 08:13:32;;;;;;;4.22;1.40;;;17.90;52.00;;;;;;5076783;28;20174;-66
2021/04/10 08:16:19;;;;;;;3.20;1.30;;;17.90;51.90;;;;;;5094140;28;20258;-66
2021/04/10 08:18:46;;;;;;;3.72;1.60;;;17.90;52.00;;;;;;5095155;28;20177;-63
2021/04/10 08:21:15;;;;;;;4.85;1.50;;;17.90;52.10;;;;;;5076254;28;20251;-62
2021/04/10 08:23:41;;;;;;;2.67;1.40;;;17.90;52.00;;;;;;5060283;28;20192;-65
2021/04/10 08:26:06;;;;;;;6.30;1.50;;;17.80;51.90;;;;;;5094756;28;20609;-62
2021/04/10 08:28:32;;;;;;;1.45;0.93;;;17.90;52.00;;;;;;5093841;28;20185;-63
2021/04/10 08:30:58;;;;;;;3.20;1.20;;;17.90;52.60;;;;;;5076627;28;20178;-65
2021/04/10 08:33:27;;;;;;;3.75;1.58;;;17.90;52.00;;;;;;5094397;28;20158;-66
2021/04/10 08:35:54;;;;;;;6.15;1.40;;;17.90;51.90;;;;;;5075927;28;20705;-68
2021/04/10 08:38:21;;;;;;;3.47;1.20;;;17.90;51.90;;;;;;5076362;28;20170;-69
2021/04/10 08:40:50;;;;;;;2.83;1.33;;;17.90;51.90;;;;;;5059740;28;20212;-65
2021/04/10 08:43:17;;;;;;;2.55;1.02;;;18.00;51.90;;;;;;5075717;28;20166;-65
2021/04/10 08:45:42;;;;;;;3.13;1.23;;;17.90;51.90;;;;;;5059467;28;20261;-63
2021/04/10 08:48:09;;;;;;;3.20;1.25;;;17.90;52.00;;;;;;5042664;28;20260;-62
2021/04/10 08:50:38;;;;;;;3.45;1.20;;;17.90;52.00;;;;;;5056350;28;20223;-62
2021/04/10 08:53:08;;;;;;;1.52;1.27;;;17.90;51.80;;;;;;5076203;28;20170;-61
2021/04/10 08:55:34;;;;;;;3.72;1.38;;;17.90;51.70;;;;;;5055636;28;20547;-62
2021/04/10 08:57:59;;;;;;;1.58;1.08;;;17.90;51.70;;;;;;5058664;28;20261;-68
2021/04/10 09:00:31;;;;;;;1.98;1.27;;;17.90;51.60;;;;;;5042389;28;20621;-62
2021/04/10 09:02:58;;;;;;;3.10;1.35;;;17.90;51.60;;;;;;5093362;28;20169;-68
2021/04/10 09:05:26;;;;;;;3.80;1.25;;;17.90;51.60;;;;;;5059107;28;20219;-65
2021/04/10 09:07:52;;;;;;;3.28;1.15;;;18.00;51.70;;;;;;5055799;28;20245;-61
2021/04/10 09:10:23;;;;;;;3.15;1.33;;;18.00;51.80;;;;;;5073064;28;20301;-63
2021/04/10 09:12:49;;;;;;;3.80;1.13;;;18.00;51.80;;;;;;5073482;28;20557;-70
2021/04/10 09:15:15;;;;;;;3.20;0.95;;;18.00;51.70;;;;;;5055554;28;20223;-62
2021/04/10 09:18:04;;;;;;;1.58;1.13;;;18.00;51.70;;;;;;5037832;28;20200;-62
2021/04/10 09:20:45;;;;;;;3.03;1.23;;;18.00;51.60;;;;;;5056050;28;20317;-63
2021/04/10 09:23:35;;;;;;;4.50;1.08;;;18.10;51.60;;;;;;5073198;28;20170;-61
2021/04/10 09:26:11;;;;;;;3.40;1.08;;;18.10;51.70;;;;;;5055002;28;20228;-64
2021/04/10 09:28:55;;;;;;;1.75;1.20;;;18.00;51.70;;;;;;5038853;28;20192;-67
2021/04/10 09:31:44;;;;;;;2.70;1.05;;;18.00;51.70;;;;;;5072235;28;20183;-66
2021/04/10 09:34:51;;;;;;;5.78;1.20;;;18.00;51.70;;;;;;5072991;28;20170;-67
2021/04/10 09:37:19;;;;;;;2.88;1.10;;;17.90;51.80;;;;;;5055223;28;20170;-61
2021/04/10 09:39:56;;;;;;;1.85;0.90;;;18.00;52.00;;;;;;5072308;28;20209;-61
2021/04/10 09:45:18;;;;;;;4.53;1.38;;;17.90;52.00;;;;;;5072666;28;20174;-61
2021/04/10 09:47:56;;;;;;;2.42;1.30;;;17.90;52.00;;;;;;5056039;28;20171;-61
2021/04/10 09:50:23;;;;;;;4.88;1.30;;;18.00;52.10;;;;;;5072434;28;20210;-61
2021/04/10 09:53:03;;;;;;;4.38;1.48;;;18.10;52.00;;;;;;5054489;28;20201;-60
2021/04/10 09:55:30;;;;;;;3.08;1.00;;;18.30;52.00;;;;;;5054543;28;20625;-62
2021/04/10 09:58:00;;;;;;;2.85;1.30;;;18.50;51.60;;;;;;5039987;28;20178;-62
2021/04/10 10:00:26;;;;;;;2.40;1.15;;;18.90;50.90;;;;;;5070729;28;20167;-61
2021/04/10 10:02:55;;;;;;;4.93;1.10;;;19.30;50.10;;;;;;5071319;28;20174;-62
2021/04/10 10:05:21;;;;;;;4.97;1.13;;;19.50;49.50;;;;;;5071107;28;20653;-63
2021/04/10 10:07:48;;;;;;;1.17;0.88;;;19.80;49.00;;;;;;5037658;28;20213;-61
2021/04/10 10:10:14;;;;;;;1.63;1.20;;;19.90;48.70;;;;;;5071383;28;20209;-62
2021/04/10 10:12:40;;;;;;;2.40;1.15;;;20.00;48.50;;;;;;5072060;28;20222;-61
2021/04/10 10:15:21;;;;;;;2.42;1.15;;;20.20;48.30;;;;;;5071827;28;20533;-61
2021/04/10 10:17:47;;;;;;;1.67;0.98;;;20.30;48.10;;;;;;5071272;28;20616;-61
2021/04/10 10:20:13;;;;;;;3.60;1.05;;;20.40;48.00;;;;;;5070969;28;20245;-62
2021/04/10 10:22:40;;;;;;;3.83;1.23;;;20.40;47.90;;;;;;5070873;28;20546;-62
2021/04/10 10:25:06;;;;;;;4.25;1.30;;;20.40;47.90;;;;;;5071203;28;20167;-61
2021/04/10 10:27:53;;;;;;;2.10;1.15;;;20.40;47.90;;;;;;5070792;28;20602;-61
2021/04/10 10:30:19;;;;;;;2.83;1.38;;;20.40;48.00;;;;;;5070617;28;20214;-64
2021/04/10 10:32:49;;;;;;;1.33;1.00;;;20.40;48.00;;;;;;5037853;28;20542;-61
2021/04/10 10:35:17;;;;;;;3.15;1.13;;;20.40;48.00;;;;;;5053751;28;20175;-61
2021/04/10 10:37:49;;;;;;;1.48;0.82;;;20.40;48.00;;;;;;5070774;28;20167;-66
2021/04/10 10:40:25;;;;;;;1.48;1.05;;;20.30;48.10;;;;;;5054408;28;20171;-61
2021/04/10 10:43:08;;;;;;;1.55;0.77;;;20.20;48.30;;;;;;5070396;28;20162;-60
2021/04/10 10:46:00;;;;;;;1.63;0.80;;;20.20;48.40;;;;;;5070859;28;20166;-61
2021/04/10 10:48:27;;;;;;;0.80;0.77;;;20.20;48.40;;;;;;5050118;28;20186;-60
2021/04/10 10:51:02;;;;;;;1.25;0.80;;;20.10;48.40;;;;;;5070793;28;20202;-60
2021/04/10 10:53:35;;;;;;;1.52;0.82;;;20.10;48.50;;;;;;5071962;28;20174;-59
2021/04/10 10:56:02;;;;;;;0.88;0.70;;;20.10;48.50;;;;;;5070275;28;20174;-60
2021/04/10 10:58:37;;;;;;;2.08;1.00;;;20.20;48.50;;;;;;5073890;28;20650;-57
2021/04/10 11:01:10;;;;;;;1.23;1.10;;;20.20;48.40;;;;;;5092239;28;20244;-62
2021/04/10 11:03:35;;;;;;;3.38;1.02;;;20.30;48.40;;;;;;5073352;28;20207;-64
2021/04/10 11:06:01;;;;;;;2.65;1.33;;;20.30;48.40;;;;;;5074141;28;20173;-62
2021/04/10 11:08:26;;;;;;;3.58;1.00;;;20.30;48.40;;;;;;5073893;28;20166;-67
2021/04/10 11:10:53;;;;;;;2.55;0.80;;;20.30;48.40;;;;;;5073188;28;20201;-63
2021/04/10 11:13:18;;;;;;;6.45;1.25;;;20.40;48.40;;;;;;5074328;28;20223;-64
2021/04/10 11:15:44;;;;;;;2.33;1.17;;;20.50;48.40;;;;;;5057402;28;20177;-63
2021/04/10 11:18:26;;;;;;;3.05;1.10;;;20.40;48.40;;;;;;5056784;28;20260;-62
2021/04/10 11:20:52;;;;;;;3.45;1.30;;;20.50;48.40;;;;;;5057382;28;20181;-64
2021/04/10 11:23:18;;;;;;;2.08;0.80;;;20.40;48.40;;;;;;5073980;28;20546;-63
2021/04/10 11:25:48;;;;;;;2.33;0.90;;;20.50;48.50;;;;;;5056820;28;20529;-64
2021/04/10 11:28:30;;;;;;;1.77;0.93;;;20.50;48.40;;;;;;5074063;28;20193;-62
2021/04/10 11:31:05;;;;;;;2.55;1.00;;;20.50;48.50;;;;;;5056660;28;20208;-58
2021/04/10 11:33:31;;;;;;;1.83;0.90;;;20.50;48.50;;;;;;5073606;28;20177;-61
2021/04/10 11:35:57;;;;;;;2.67;1.20;;;20.50;48.40;;;;;;5073764;28;20166;-61
2021/04/10 11:38:22;;;;;;;2.15;0.80;;;20.60;48.50;;;;;;5091091;28;20185;-61
2021/04/10 11:40:48;;;;;;;2.63;0.77;;;20.50;48.50;;;;;;5077167;28;20200;-60
2021/04/10 11:43:14;;;;;;;1.48;1.00;;;20.50;48.60;;;;;;5095681;28;20174;-60
2021/04/10 11:45:44;;;;;;;1.65;0.73;;;20.40;48.80;;;;;;5076578;28;20177;-60
2021/04/10 11:48:16;;;;;;;2.83;0.88;;;20.30;49.00;;;;;;5061370;28;20166;-60
2021/04/10 11:50:43;;;;;;;1.88;0.80;;;20.30;49.00;;;;;;5060334;28;20209;-60
2021/04/10 11:53:19;;;;;;;1.60;0.77;;;20.20;49.10;;;;;;5076756;28;20165;-60
2021/04/10 11:55:46;;;;;;;1.02;0.90;;;20.20;49.30;;;;;;5095219;28;20535;-61
2021/04/10 11:58:12;;;;;;;2.00;0.82;;;20.10;50.00;;;;;;5057122;28;20181;-63
2021/04/10 12:00:38;;;;;;;2.25;0.80;;;20.20;49.40;;;;;;5056218;28;20179;-63
2021/04/10 12:03:08;;;;;;;3.47;0.98;;;20.20;49.40;;;;;;5057067;28;20170;-62
2021/04/10 12:05:41;;;;;;;2.67;1.08;;;20.20;49.40;;;;;;5056660;28;20536;-61
2021/04/10 12:08:25;;;;;;;1.20;0.95;;;20.20;49.40;;;;;;5074506;28;20202;-61
2021/04/10 12:10:58;;;;;;;2.08;0.93;;;20.20;49.40;;;;;;5056881;28;20267;-61
2021/04/10 12:13:25;;;;;;;1.40;0.93;;;20.30;49.40;;;;;;5056310;28;20664;-63
2021/04/10 12:15:55;;;;;;;2.13;1.27;;;20.30;49.40;;;;;;5074546;28;20177;-60
2021/04/10 12:18:23;;;;;;;1.60;1.10;;;20.20;49.40;;;;;;5056608;28;20194;-60
2021/04/10 12:20:49;;;;;;;2.15;1.25;;;20.20;49.40;;;;;;5073939;28;20261;-61
2021/04/10 12:23:15;;;;;;;2.78;1.27;;;20.20;50.10;;;;;;5057119;28;20257;-61
2021/04/10 12:25:41;;;;;;;2.58;1.55;;;20.20;49.40;;;;;;5056258;28;20320;-60
2021/04/10 12:28:06;;;;;;;2.00;1.00;;;20.20;49.50;;;;;;5055920;28;20178;-60
2021/04/10 12:30:32;;;;;;;4.43;1.52;;;20.10;49.50;;;;;;5074142;28;20653;-71
2021/04/10 12:32:58;;;;;;;2.05;1.33;;;20.10;49.60;;;;;;5074521;28;20170;-63
2021/04/10 12:35:24;;;;;;;1.63;1.13;;;20.10;49.80;;;;;;5055646;28;20175;-63
2021/04/10 12:37:49;;;;;;;1.55;0.90;;;20.10;49.80;;;;;;5056532;28;20200;-64
2021/04/10 12:40:15;;;;;;;3.40;0.95;;;20.00;49.90;;;;;;5056500;28;20236;-64
2021/04/10 12:42:41;;;;;;;1.40;1.00;;;20.00;50.00;;;;;;5055522;28;20630;-59
2021/04/10 12:45:07;;;;;;;2.92;0.98;;;20.00;50.00;;;;;;5056262;28;20178;-68
2021/04/10 12:47:33;;;;;;;5.95;1.30;;;20.00;49.90;;;;;;5056285;28;20159;-59
2021/04/10 12:49:59;;;;;;;1.30;0.80;;;20.00;49.80;;;;;;5038834;28;20378;-62
2021/04/10 12:52:24;;;;;;;1.23;1.00;;;20.00;49.80;;;;;;5054897;28;20167;-59
2021/04/10 12:54:50;;;;;;;2.65;1.05;;;20.10;49.80;;;;;;5056115;28;20178;-65